(°C)
11°
12°
13°
16°
18°
20°
22°
(°C)
10°
11°
14°
17°
18°
20°
Ю
Ю
Ю
ЮЗ
З
ЗСЗ
СЗ
(км/ч)
4-6
4-6
4-7
3-7
2-6
3-9
4-10
(мм)
0
0
0
0
0
0
0
(%)
0
0
0
0
0
0
0

Высота солнцестояния

/ -3.2°
sun-icon
UV 9
05:10
20:37
Растущая луна (162°)
19:15
03:35

METAR для 43.36°С 77.05°В (UAAA)

Время Условия Температура/
Точка росы
Ветер Видимость Погода Облачность Давление Изменить Необработанный
VFR 11°C / 5°C 180º 2kt >10km - Few Clouds 10000ft 1017 No Significant change UAAA 222230Z 18001MPS 9999 FEW100 BKN200 11/05 Q1017 R05R/CLRD65 NOSIG
VFR 11°C / 5°C variable 2kt >10km - Few Clouds 10000ft 1017 No Significant change UAAA 222200Z VRB01MPS 9999 FEW100 BKN200 11/05 Q1017 R23L/CLRD65 NOSIG
VFR 11°C / 5°C 150º 6kt >10km - Few Clouds 10000ft 1017 No Significant change UAAA 222130Z 15003MPS 9999 FEW100 SCT200 11/05 Q1017 R23L/CLRD65 NOSIG
VFR 11°C / 6°C 170º 4kt >10km - Few Clouds 10000ft 1017 No Significant change UAAA 222100Z 17002MPS 9999 FEW100 11/06 Q1017 R05R/CLRD65 NOSIG
VFR 12°C / 6°C 190º 4kt >10km - Few Clouds 10000ft 1017 No Significant change UAAA 222030Z 19002MPS 9999 FEW100 12/06 Q1017 R05R/CLRD65 NOSIG
VFR 11°C / 6°C 260º 4kt >10km - Few Clouds 10000ft 1017 No Significant change UAAA 222000Z 26002MPS 9999 FEW100 11/06 Q1017 R05R/CLRD65 NOSIG
VFR 12°C / 6°C 210º 4kt >10km - Few Clouds 10000ft 1017 No Significant change UAAA 221930Z 21002MPS 9999 FEW100 12/06 Q1017 R05R/CLRD65 NOSIG
VFR 12°C / 6°C 210º 2kt >10km - Few Clouds 10000ft 1017 No Significant change UAAA 221900Z 21001MPS 9999 FEW100 12/06 Q1017 R05R/CLRD65 NOSIG
VFR 13°C / 6°C 200º 4kt >10km - Scattered Clouds 10000ft 1018 No Significant change UAAA 221830Z 20002MPS 9999 SCT100 13/06 Q1018 R05R/CLRD65 NOSIG
VFR 14°C / 6°C 200º variable 160º to 220º 4kt >10km - Few Clouds 5000ft 1018 No Significant change UAAA 221800Z 20002MPS 160V220 9999 FEW050CB BKN100 14/06 Q1018 R05R/CLRD65 NOSIG
VFR 15°C / 6°C 200º 6kt >10km - Few Clouds 5000ft 1018 No Significant change UAAA 221730Z 20003MPS 9999 FEW050CB BKN100 15/06 Q1018 R05R/CLRD65 NOSIG
VFR 15°C / 6°C 150º 4kt >10km - Few Clouds 5000ft 1018 No Significant change UAAA 221700Z 15002MPS 9999 FEW050CB BKN100 15/06 Q1018 R05R/CLRD65 NOSIG
VFR 16°C / 5°C 130º variable 100º to 170º 4kt >10km - Few Clouds 5000ft 1018 No Significant change UAAA 221630Z 13002MPS 100V170 9999 FEW050CB BKN100 16/05 Q1018 R05R/CLRD65 NOSIG
VFR 17°C / 5°C 30º 4kt >10km - Few Clouds 5000ft 1017 No Significant change UAAA 221600Z 03002MPS 9999 FEW050CB BKN100 17/05 Q1017 R05R/CLRD65 NOSIG
VFR 17°C / 5°C 10º 6kt >10km - Few Clouds 5000ft 1017 No Significant change UAAA 221530Z 01003MPS 9999 FEW050CB BKN100 17/05 Q1017 R05R/CLRD65 NOSIG
VFR 19°C / 5°C 10º 8kt >10km - Few Clouds 5000ft 1017 No Significant change UAAA 221500Z 01004MPS 9999 FEW050CB BKN100 19/05 Q1017 R05R/CLRD65 NOSIG
VFR 20°C / 5°C 40º 6kt >10km - Few Clouds 5000ft 1016 No Significant change UAAA 221430Z 04003MPS 9999 FEW050CB BKN100 20/05 Q1016 R05R/CLRD65 NOSIG
VFR 22°C / 4°C 20º 6kt >10km - Few Clouds 5000ft 1016 No Significant change UAAA 221400Z 02003MPS 9999 FEW050CB BKN100 22/04 Q1016 R05R/CLRD65 NOSIG
VFR 23°C / 5°C 360º 8kt >10km - Few Clouds 5000ft 1016 No Significant change UAAA 221330Z 36004MPS 9999 FEW050CB BKN100 23/05 Q1016 R05R/CLRD65 NOSIG
VFR 24°C / 4°C 360º 10kt >10km - Few Clouds 5000ft 1016 No Significant change UAAA 221300Z 36005MPS 9999 FEW050CB BKN100 24/04 Q1016 R05R/CLRD65 NOSIG
VFR 24°C / 4°C 330º 12kt >10km - Few Clouds 5000ft 1015 No Significant change UAAA 221230Z 33006MPS 9999 FEW050CB BKN100 24/04 Q1015 R05R/CLRD65 NOSIG
VFR 25°C / 5°C 350º 8kt >10km - Few Clouds 5000ft 1015 No Significant change UAAA 221216Z 35004MPS 9999 FEW050CB BKN100 25/05 Q1015 R05R/CLRD65 NOSIG
VFR 25°C / 5°C 350º variable 310º to 030º 14kt >10km - Few Clouds 5000ft 1015 No Significant change UAAA 221205Z 35007MPS 310V030 9999 FEW050CB BKN100 25/05 Q1015 R05R/CLRD65 NOSIG
VFR 26°C / 5°C 280º variable 190º to 330º 6kt >10km - Scattered Clouds 5000ft 1015 No Significant change UAAA 221130Z 28003MPS 190V330 9999 SCT050CB BKN100 26/05 Q1015 R05R/CLRD65 NOSIG

VFR

11°C / 5°C

[Больше]
Ветер 180º 2kt
Видимость >10km
Погода -
Облачность Few Clouds 10000ft
Давление 1017
Изменить No Significant change
Необработанный UAAA 222230Z 18001MPS 9999 FEW100 BKN200 11/05 Q1017 R05R/CLRD65 NOSIG

VFR

11°C / 5°C

[Больше]
Ветер variable 2kt
Видимость >10km
Погода -
Облачность Few Clouds 10000ft
Давление 1017
Изменить No Significant change
Необработанный UAAA 222200Z VRB01MPS 9999 FEW100 BKN200 11/05 Q1017 R23L/CLRD65 NOSIG

VFR

11°C / 5°C

[Больше]
Ветер 150º 6kt
Видимость >10km
Погода -
Облачность Few Clouds 10000ft
Давление 1017
Изменить No Significant change
Необработанный UAAA 222130Z 15003MPS 9999 FEW100 SCT200 11/05 Q1017 R23L/CLRD65 NOSIG

VFR

11°C / 6°C

[Больше]
Ветер 170º 4kt
Видимость >10km
Погода -
Облачность Few Clouds 10000ft
Давление 1017
Изменить No Significant change
Необработанный UAAA 222100Z 17002MPS 9999 FEW100 11/06 Q1017 R05R/CLRD65 NOSIG

VFR

12°C / 6°C

[Больше]
Ветер 190º 4kt
Видимость >10km
Погода -
Облачность Few Clouds 10000ft
Давление 1017
Изменить No Significant change
Необработанный UAAA 222030Z 19002MPS 9999 FEW100 12/06 Q1017 R05R/CLRD65 NOSIG

VFR

11°C / 6°C

[Больше]
Ветер 260º 4kt
Видимость >10km
Погода -
Облачность Few Clouds 10000ft
Давление 1017
Изменить No Significant change
Необработанный UAAA 222000Z 26002MPS 9999 FEW100 11/06 Q1017 R05R/CLRD65 NOSIG

VFR

12°C / 6°C

[Больше]
Ветер 210º 4kt
Видимость >10km
Погода -
Облачность Few Clouds 10000ft
Давление 1017
Изменить No Significant change
Необработанный UAAA 221930Z 21002MPS 9999 FEW100 12/06 Q1017 R05R/CLRD65 NOSIG

VFR

12°C / 6°C

[Больше]
Ветер 210º 2kt
Видимость >10km
Погода -
Облачность Few Clouds 10000ft
Давление 1017
Изменить No Significant change
Необработанный UAAA 221900Z 21001MPS 9999 FEW100 12/06 Q1017 R05R/CLRD65 NOSIG

VFR

13°C / 6°C

[Больше]
Ветер 200º 4kt
Видимость >10km
Погода -
Облачность Scattered Clouds 10000ft
Давление 1018
Изменить No Significant change
Необработанный UAAA 221830Z 20002MPS 9999 SCT100 13/06 Q1018 R05R/CLRD65 NOSIG

VFR

14°C / 6°C

[Больше]
Ветер 200º variable 160º to 220º 4kt
Видимость >10km
Погода -
Облачность Few Clouds 5000ft
Давление 1018
Изменить No Significant change
Необработанный UAAA 221800Z 20002MPS 160V220 9999 FEW050CB BKN100 14/06 Q1018 R05R/CLRD65 NOSIG

VFR

15°C / 6°C

[Больше]
Ветер 200º 6kt
Видимость >10km
Погода -
Облачность Few Clouds 5000ft
Давление 1018
Изменить No Significant change
Необработанный UAAA 221730Z 20003MPS 9999 FEW050CB BKN100 15/06 Q1018 R05R/CLRD65 NOSIG

VFR

15°C / 6°C

[Больше]
Ветер 150º 4kt
Видимость >10km
Погода -
Облачность Few Clouds 5000ft
Давление 1018
Изменить No Significant change
Необработанный UAAA 221700Z 15002MPS 9999 FEW050CB BKN100 15/06 Q1018 R05R/CLRD65 NOSIG

VFR

16°C / 5°C

[Больше]
Ветер 130º variable 100º to 170º 4kt
Видимость >10km
Погода -
Облачность Few Clouds 5000ft
Давление 1018
Изменить No Significant change
Необработанный UAAA 221630Z 13002MPS 100V170 9999 FEW050CB BKN100 16/05 Q1018 R05R/CLRD65 NOSIG

VFR

17°C / 5°C

[Больше]
Ветер 30º 4kt
Видимость >10km
Погода -
Облачность Few Clouds 5000ft
Давление 1017
Изменить No Significant change
Необработанный UAAA 221600Z 03002MPS 9999 FEW050CB BKN100 17/05 Q1017 R05R/CLRD65 NOSIG

VFR

17°C / 5°C

[Больше]
Ветер 10º 6kt
Видимость >10km
Погода -
Облачность Few Clouds 5000ft
Давление 1017
Изменить No Significant change
Необработанный UAAA 221530Z 01003MPS 9999 FEW050CB BKN100 17/05 Q1017 R05R/CLRD65 NOSIG

VFR

19°C / 5°C

[Больше]
Ветер 10º 8kt
Видимость >10km
Погода -
Облачность Few Clouds 5000ft
Давление 1017
Изменить No Significant change
Необработанный UAAA 221500Z 01004MPS 9999 FEW050CB BKN100 19/05 Q1017 R05R/CLRD65 NOSIG

VFR

20°C / 5°C

[Больше]
Ветер 40º 6kt
Видимость >10km
Погода -
Облачность Few Clouds 5000ft
Давление 1016
Изменить No Significant change
Необработанный UAAA 221430Z 04003MPS 9999 FEW050CB BKN100 20/05 Q1016 R05R/CLRD65 NOSIG

VFR

22°C / 4°C

[Больше]
Ветер 20º 6kt
Видимость >10km
Погода -
Облачность Few Clouds 5000ft
Давление 1016
Изменить No Significant change
Необработанный UAAA 221400Z 02003MPS 9999 FEW050CB BKN100 22/04 Q1016 R05R/CLRD65 NOSIG

VFR

23°C / 5°C

[Больше]
Ветер 360º 8kt
Видимость >10km
Погода -
Облачность Few Clouds 5000ft
Давление 1016
Изменить No Significant change
Необработанный UAAA 221330Z 36004MPS 9999 FEW050CB BKN100 23/05 Q1016 R05R/CLRD65 NOSIG

VFR

24°C / 4°C

[Больше]
Ветер 360º 10kt
Видимость >10km
Погода -
Облачность Few Clouds 5000ft
Давление 1016
Изменить No Significant change
Необработанный UAAA 221300Z 36005MPS 9999 FEW050CB BKN100 24/04 Q1016 R05R/CLRD65 NOSIG

VFR

24°C / 4°C

[Больше]
Ветер 330º 12kt
Видимость >10km
Погода -
Облачность Few Clouds 5000ft
Давление 1015
Изменить No Significant change
Необработанный UAAA 221230Z 33006MPS 9999 FEW050CB BKN100 24/04 Q1015 R05R/CLRD65 NOSIG

VFR

25°C / 5°C

[Больше]
Ветер 350º 8kt
Видимость >10km
Погода -
Облачность Few Clouds 5000ft
Давление 1015
Изменить No Significant change
Необработанный UAAA 221216Z 35004MPS 9999 FEW050CB BKN100 25/05 Q1015 R05R/CLRD65 NOSIG

VFR

25°C / 5°C

[Больше]
Ветер 350º variable 310º to 030º 14kt
Видимость >10km
Погода -
Облачность Few Clouds 5000ft
Давление 1015
Изменить No Significant change
Необработанный UAAA 221205Z 35007MPS 310V030 9999 FEW050CB BKN100 25/05 Q1015 R05R/CLRD65 NOSIG

VFR

26°C / 5°C

[Больше]
Ветер 280º variable 190º to 330º 6kt
Видимость >10km
Погода -
Облачность Scattered Clouds 5000ft
Давление 1015
Изменить No Significant change
Необработанный UAAA 221130Z 28003MPS 190V330 9999 SCT050CB BKN100 26/05 Q1015 R05R/CLRD65 NOSIG

TAF для 43.36°С 77.05°В (UAAA)

From till


Maximum Temperature 26ºC on . Minimum Temperature 9ºC on .
From till Wind 240º 6kt. Visibility 10km or more. Few Clouds 5000ft. Scattered Clouds 10000ft.
Temporarly from till Wind 190º 6kt. Visibility 5000m. Mist Smoke .
Becoming from till Wind 340º 6kt. Visibility 10km or more. Few Clouds 5000ft. Scattered Clouds 10000ft.
Temporarly from till Wind 30º 6kt. Gust 16kt.
Becoming from till Wind 180º 6kt. Visibility 10km or more. Few Clouds 5000ft. Scattered Clouds 10000ft.

Необработанный: TAF UAAA 221700Z 2218/2318 24003MPS 9999 FEW050CB SCT100 TX26/2310Z TN09/2301Z TEMPO 2218/2302 19003MPS 5000 BR FU BECMG 2302/2303 34003MPS TEMPO 2302/2314 03003G08MPS BECMG 2314/2315 18003MPS

Текущие спутниковые изображения и снимки дождя для 43.36°С 77.05°В

Указатель местности находится на 43.36°С 77.05°В. [Больше]

Спутниковое изображение в реальном времени сочетает в себе видимый свет в дневное время с инфракрасным излучением в ночное время. Ночью изображение получается не темным, так как инфракрасное излучение может обнаружить разницу температур. К сожалению, низкие облака и туман трудно отличить от температуры у поверхности земли и поэтому могут быть почти незаметны ночью. Спутниковые снимки Meteosat для Европы обновляются каждые 5 минут в режиме реального времени.Снимки GOES-16/GOES-17 (Северная и Южная Америка) и Химавари (Азия) обновляются каждые 10 минут.

Копирайт 2021 EUMETSAT / meteoblue. / Копирайт 2021 meteoblue

Радарный и сверхкраткосрочный прогноз осадков для 43.36°С 77.05°В

Индикатор местности находится на 43.36°С 77.05°В. Анимация показывает радар осадков за последний час, а также прогноз погоды для1h. Умеренная морось или легкий снег могут быть незаметны для радара. Интенсивность осадковмаркированна цветной кодировкой, начиная со светло-синего и заканчивая темно-пурпурным.